sensor_id;sensor_type;location;lat;lon;timestamp;P1;durP1;ratioP1;P2;durP2;ratioP2
4057;SDS011;2044;48.692;9.020;2023-02-03T00:01:14;1.90;;;1.10;;
4057;SDS011;2044;48.692;9.020;2023-02-03T00:03:41;1.27;;;1.00;;
4057;SDS011;2044;48.692;9.020;2023-02-03T00:06:08;0.80;;;0.80;;
4057;SDS011;2044;48.692;9.020;2023-02-03T00:08:35;0.97;;;0.80;;
4057;SDS011;2044;48.692;9.020;2023-02-03T00:11:03;1.00;;;0.90;;
4057;SDS011;2044;48.692;9.020;2023-02-03T00:13:30;1.57;;;0.80;;
4057;SDS011;2044;48.692;9.020;2023-02-03T00:15:58;0.80;;;0.80;;
4057;SDS011;2044;48.692;9.020;2023-02-03T00:18:26;1.00;;;0.80;;
4057;SDS011;2044;48.692;9.020;2023-02-03T00:20:53;1.00;;;0.70;;
4057;SDS011;2044;48.692;9.020;2023-02-03T00:23:19;0.77;;;0.77;;
4057;SDS011;2044;48.692;9.020;2023-02-03T00:25:47;0.80;;;0.67;;
4057;SDS011;2044;48.692;9.020;2023-02-03T00:28:14;0.80;;;0.80;;
4057;SDS011;2044;48.692;9.020;2023-02-03T00:30:40;0.80;;;0.80;;
4057;SDS011;2044;48.692;9.020;2023-02-03T00:33:08;1.30;;;0.90;;
4057;SDS011;2044;48.692;9.020;2023-02-03T00:35:36;1.67;;;0.80;;
4057;SDS011;2044;48.692;9.020;2023-02-03T00:38:04;0.93;;;0.80;;
4057;SDS011;2044;48.692;9.020;2023-02-03T00:40:30;0.80;;;0.63;;
4057;SDS011;2044;48.692;9.020;2023-02-03T00:42:57;1.23;;;0.80;;
4057;SDS011;2044;48.692;9.020;2023-02-03T00:45:24;0.80;;;0.77;;
4057;SDS011;2044;48.692;9.020;2023-02-03T00:47:51;0.90;;;0.70;;
4057;SDS011;2044;48.692;9.020;2023-02-03T00:50:19;1.00;;;0.67;;
4057;SDS011;2044;48.692;9.020;2023-02-03T00:52:45;0.60;;;0.60;;
4057;SDS011;2044;48.692;9.020;2023-02-03T00:55:12;0.83;;;0.67;;
4057;SDS011;2044;48.692;9.020;2023-02-03T00:57:39;1.00;;;0.70;;
4057;SDS011;2044;48.692;9.020;2023-02-03T01:00:06;0.80;;;0.67;;
4057;SDS011;2044;48.692;9.020;2023-02-03T01:02:34;0.97;;;0.80;;
4057;SDS011;2044;48.692;9.020;2023-02-03T01:05:00;0.70;;;0.70;;
4057;SDS011;2044;48.692;9.020;2023-02-03T01:07:31;1.33;;;1.20;;
4057;SDS011;2044;48.692;9.020;2023-02-03T01:09:57;2.20;;;0.70;;
4057;SDS011;2044;48.692;9.020;2023-02-03T01:12:24;0.80;;;0.80;;
4057;SDS011;2044;48.692;9.020;2023-02-03T01:14:51;2.10;;;1.20;;
4057;SDS011;2044;48.692;9.020;2023-02-03T01:17:17;1.73;;;0.87;;
4057;SDS011;2044;48.692;9.020;2023-02-03T01:19:44;1.97;;;0.87;;
4057;SDS011;2044;48.692;9.020;2023-02-03T01:22:11;1.33;;;0.80;;
4057;SDS011;2044;48.692;9.020;2023-02-03T01:24:39;1.73;;;0.70;;
4057;SDS011;2044;48.692;9.020;2023-02-03T01:27:05;1.00;;;0.90;;
4057;SDS011;2044;48.692;9.020;2023-02-03T01:29:32;1.30;;;0.80;;
4057;SDS011;2044;48.692;9.020;2023-02-03T01:31:59;0.70;;;0.70;;
4057;SDS011;2044;48.692;9.020;2023-02-03T01:34:26;1.53;;;0.80;;
4057;SDS011;2044;48.692;9.020;2023-02-03T01:36:52;1.13;;;1.03;;
4057;SDS011;2044;48.692;9.020;2023-02-03T01:39:19;0.80;;;0.80;;
4057;SDS011;2044;48.692;9.020;2023-02-03T01:41:47;0.97;;;0.93;;
4057;SDS011;2044;48.692;9.020;2023-02-03T01:47:12;2.30;;;0.90;;
4057;SDS011;2044;48.692;9.020;2023-02-03T01:49:44;0.90;;;0.83;;
4057;SDS011;2044;48.692;9.020;2023-02-03T01:52:15;3.80;;;1.20;;
4057;SDS011;2044;48.692;9.020;2023-02-03T01:54:43;1.27;;;1.17;;
4057;SDS011;2044;48.692;9.020;2023-02-03T01:57:14;1.07;;;1.00;;
4057;SDS011;2044;48.692;9.020;2023-02-03T01:59:47;4.77;;;1.33;;
4057;SDS011;2044;48.692;9.020;2023-02-03T02:02:14;8.83;;;1.30;;
4057;SDS011;2044;48.692;9.020;2023-02-03T02:04:45;0.97;;;0.70;;
4057;SDS011;2044;48.692;9.020;2023-02-03T02:07:18;1.50;;;1.33;;
4057;SDS011;2044;48.692;9.020;2023-02-03T02:09:45;1.23;;;1.13;;
4057;SDS011;2044;48.692;9.020;2023-02-03T02:12:12;1.10;;;1.00;;
4057;SDS011;2044;48.692;9.020;2023-02-03T02:14:40;1.33;;;1.20;;
4057;SDS011;2044;48.692;9.020;2023-02-03T02:17:10;1.13;;;1.03;;
4057;SDS011;2044;48.692;9.020;2023-02-03T02:19:52;1.57;;;0.60;;
4057;SDS011;2044;48.692;9.020;2023-02-03T02:22:34;1.83;;;1.30;;
4057;SDS011;2044;48.692;9.020;2023-02-03T02:28:13;1.63;;;1.27;;
4057;SDS011;2044;48.692;9.020;2023-02-03T02:30:59;1.97;;;1.60;;
4057;SDS011;2044;48.692;9.020;2023-02-03T02:33:49;3.13;;;1.60;;
4057;SDS011;2044;48.692;9.020;2023-02-03T02:36:24;2.10;;;1.37;;
4057;SDS011;2044;48.692;9.020;2023-02-03T02:38:58;2.07;;;1.57;;
4057;SDS011;2044;48.692;9.020;2023-02-03T02:41:32;1.10;;;0.90;;
4057;SDS011;2044;48.692;9.020;2023-02-03T02:44:06;1.23;;;1.13;;
4057;SDS011;2044;48.692;9.020;2023-02-03T02:46:39;1.73;;;1.20;;
4057;SDS011;2044;48.692;9.020;2023-02-03T02:49:10;2.27;;;1.53;;
4057;SDS011;2044;48.692;9.020;2023-02-03T02:51:41;1.33;;;1.20;;
4057;SDS011;2044;48.692;9.020;2023-02-03T02:54:10;2.10;;;1.07;;
4057;SDS011;2044;48.692;9.020;2023-02-03T02:56:41;1.33;;;1.10;;
4057;SDS011;2044;48.692;9.020;2023-02-03T02:59:10;1.57;;;1.10;;
4057;SDS011;2044;48.692;9.020;2023-02-03T03:01:38;3.50;;;1.00;;
4057;SDS011;2044;48.692;9.020;2023-02-03T03:04:05;0.97;;;0.87;;
4057;SDS011;2044;48.692;9.020;2023-02-03T03:06:38;2.83;;;1.10;;
4057;SDS011;2044;48.692;9.020;2023-02-03T03:09:10;1.07;;;0.97;;
4057;SDS011;2044;48.692;9.020;2023-02-03T03:11:41;1.47;;;0.90;;
4057;SDS011;2044;48.692;9.020;2023-02-03T03:14:11;1.17;;;0.93;;
4057;SDS011;2044;48.692;9.020;2023-02-03T03:16:42;1.07;;;0.90;;
4057;SDS011;2044;48.692;9.020;2023-02-03T03:19:13;1.13;;;0.80;;
4057;SDS011;2044;48.692;9.020;2023-02-03T03:21:45;1.00;;;0.60;;
4057;SDS011;2044;48.692;9.020;2023-02-03T03:24:16;0.70;;;0.70;;
4057;SDS011;2044;48.692;9.020;2023-02-03T03:26:46;0.80;;;0.80;;
4057;SDS011;2044;48.692;9.020;2023-02-03T03:29:19;0.77;;;0.60;;
4057;SDS011;2044;48.692;9.020;2023-02-03T03:31:50;0.90;;;0.80;;
4057;SDS011;2044;48.692;9.020;2023-02-03T03:34:16;0.70;;;0.60;;
4057;SDS011;2044;48.692;9.020;2023-02-03T03:36:46;0.87;;;0.60;;
4057;SDS011;2044;48.692;9.020;2023-02-03T03:39:21;0.63;;;0.60;;
4057;SDS011;2044;48.692;9.020;2023-02-03T03:41:54;0.70;;;0.67;;
4057;SDS011;2044;48.692;9.020;2023-02-03T03:44:24;0.80;;;0.60;;
4057;SDS011;2044;48.692;9.020;2023-02-03T03:47:02;0.60;;;0.60;;
4057;SDS011;2044;48.692;9.020;2023-02-03T03:49:35;0.97;;;0.60;;
4057;SDS011;2044;48.692;9.020;2023-02-03T03:52:07;2.00;;;0.83;;
4057;SDS011;2044;48.692;9.020;2023-02-03T03:54:35;0.60;;;0.50;;
4057;SDS011;2044;48.692;9.020;2023-02-03T03:57:05;0.80;;;0.60;;
4057;SDS011;2044;48.692;9.020;2023-02-03T03:59:40;0.70;;;0.60;;
4057;SDS011;2044;48.692;9.020;2023-02-03T04:02:10;0.60;;;0.50;;
4057;SDS011;2044;48.692;9.020;2023-02-03T04:04:39;0.63;;;0.57;;
4057;SDS011;2044;48.692;9.020;2023-02-03T04:07:07;0.60;;;0.50;;
4057;SDS011;2044;48.692;9.020;2023-02-03T04:09:34;2.20;;;0.80;;
4057;SDS011;2044;48.692;9.020;2023-02-03T04:12:01;1.07;;;0.70;;
4057;SDS011;2044;48.692;9.020;2023-02-03T04:14:30;0.77;;;0.70;;
4057;SDS011;2044;48.692;9.020;2023-02-03T04:16:59;1.33;;;0.70;;
4057;SDS011;2044;48.692;9.020;2023-02-03T04:19:26;1.83;;;0.60;;
4057;SDS011;2044;48.692;9.020;2023-02-03T04:21:53;0.70;;;0.70;;
4057;SDS011;2044;48.692;9.020;2023-02-03T04:24:21;1.70;;;0.80;;
4057;SDS011;2044;48.692;9.020;2023-02-03T04:26:48;0.80;;;0.70;;
4057;SDS011;2044;48.692;9.020;2023-02-03T04:29:15;0.90;;;0.90;;
4057;SDS011;2044;48.692;9.020;2023-02-03T04:31:41;0.70;;;0.60;;
4057;SDS011;2044;48.692;9.020;2023-02-03T04:34:08;5.20;;;0.90;;
4057;SDS011;2044;48.692;9.020;2023-02-03T04:36:35;1.57;;;0.80;;
4057;SDS011;2044;48.692;9.020;2023-02-03T04:39:01;0.80;;;0.77;;
4057;SDS011;2044;48.692;9.020;2023-02-03T04:41:30;0.90;;;0.80;;
4057;SDS011;2044;48.692;9.020;2023-02-03T04:43:56;1.20;;;1.10;;
4057;SDS011;2044;48.692;9.020;2023-02-03T04:46:23;1.40;;;1.00;;
4057;SDS011;2044;48.692;9.020;2023-02-03T04:48:50;1.00;;;0.90;;
4057;SDS011;2044;48.692;9.020;2023-02-03T04:51:17;4.27;;;1.40;;
4057;SDS011;2044;48.692;9.020;2023-02-03T04:53:43;1.53;;;1.03;;
4057;SDS011;2044;48.692;9.020;2023-02-03T04:56:10;1.17;;;1.00;;
4057;SDS011;2044;48.692;9.020;2023-02-03T04:58:38;0.80;;;0.70;;
4057;SDS011;2044;48.692;9.020;2023-02-03T05:01:05;2.03;;;1.40;;
4057;SDS011;2044;48.692;9.020;2023-02-03T05:03:33;2.40;;;1.90;;
4057;SDS011;2044;48.692;9.020;2023-02-03T05:06:00;0.90;;;0.90;;
4057;SDS011;2044;48.692;9.020;2023-02-03T05:08:28;0.80;;;0.70;;
4057;SDS011;2044;48.692;9.020;2023-02-03T05:10:55;1.57;;;1.00;;
4057;SDS011;2044;48.692;9.020;2023-02-03T05:13:22;2.80;;;0.90;;
4057;SDS011;2044;48.692;9.020;2023-02-03T05:15:50;1.73;;;1.20;;
4057;SDS011;2044;48.692;9.020;2023-02-03T05:18:16;2.20;;;1.00;;
4057;SDS011;2044;48.692;9.020;2023-02-03T05:20:43;1.50;;;1.00;;
4057;SDS011;2044;48.692;9.020;2023-02-03T05:23:10;1.10;;;0.90;;
4057;SDS011;2044;48.692;9.020;2023-02-03T05:25:36;2.87;;;1.20;;
4057;SDS011;2044;48.692;9.020;2023-02-03T05:28:03;7.00;;;1.33;;
4057;SDS011;2044;48.692;9.020;2023-02-03T05:30:30;1.40;;;0.90;;
4057;SDS011;2044;48.692;9.020;2023-02-03T05:32:59;1.20;;;1.00;;
4057;SDS011;2044;48.692;9.020;2023-02-03T05:35:26;1.20;;;1.10;;
4057;SDS011;2044;48.692;9.020;2023-02-03T05:37:52;5.13;;;1.30;;
4057;SDS011;2044;48.692;9.020;2023-02-03T05:40:19;1.20;;;1.10;;
4057;SDS011;2044;48.692;9.020;2023-02-03T05:43:04;0.80;;;0.80;;
4057;SDS011;2044;48.692;9.020;2023-02-03T05:45:31;1.33;;;1.00;;
4057;SDS011;2044;48.692;9.020;2023-02-03T05:47:59;1.40;;;1.20;;
4057;SDS011;2044;48.692;9.020;2023-02-03T05:50:27;1.23;;;1.00;;
4057;SDS011;2044;48.692;9.020;2023-02-03T05:52:57;2.43;;;1.40;;
4057;SDS011;2044;48.692;9.020;2023-02-03T05:55:24;2.37;;;1.10;;
4057;SDS011;2044;48.692;9.020;2023-02-03T05:57:50;2.10;;;1.40;;
4057;SDS011;2044;48.692;9.020;2023-02-03T06:00:17;1.37;;;1.13;;
4057;SDS011;2044;48.692;9.020;2023-02-03T06:02:49;2.50;;;1.33;;
4057;SDS011;2044;48.692;9.020;2023-02-03T06:05:18;1.43;;;1.33;;
4057;SDS011;2044;48.692;9.020;2023-02-03T06:07:45;1.47;;;1.37;;
4057;SDS011;2044;48.692;9.020;2023-02-03T06:10:12;1.13;;;1.00;;
4057;SDS011;2044;48.692;9.020;2023-02-03T06:12:39;1.47;;;1.37;;
4057;SDS011;2044;48.692;9.020;2023-02-03T06:15:06;2.20;;;1.00;;
4057;SDS011;2044;48.692;9.020;2023-02-03T06:17:33;2.70;;;1.27;;
4057;SDS011;2044;48.692;9.020;2023-02-03T06:20:01;1.63;;;1.30;;
4057;SDS011;2044;48.692;9.020;2023-02-03T06:22:29;1.57;;;1.00;;
4057;SDS011;2044;48.692;9.020;2023-02-03T06:24:56;1.10;;;1.00;;
4057;SDS011;2044;48.692;9.020;2023-02-03T06:27:22;1.53;;;1.13;;
4057;SDS011;2044;48.692;9.020;2023-02-03T06:29:49;2.83;;;1.20;;
4057;SDS011;2044;48.692;9.020;2023-02-03T06:32:16;2.07;;;1.43;;
4057;SDS011;2044;48.692;9.020;2023-02-03T06:34:43;2.87;;;1.77;;
4057;SDS011;2044;48.692;9.020;2023-02-03T06:37:09;1.00;;;0.87;;
4057;SDS011;2044;48.692;9.020;2023-02-03T06:39:37;1.10;;;1.00;;
4057;SDS011;2044;48.692;9.020;2023-02-03T06:42:04;1.03;;;0.87;;
4057;SDS011;2044;48.692;9.020;2023-02-03T06:44:31;1.50;;;1.00;;
4057;SDS011;2044;48.692;9.020;2023-02-03T06:46:58;1.83;;;1.00;;
4057;SDS011;2044;48.692;9.020;2023-02-03T06:49:26;2.63;;;0.73;;
4057;SDS011;2044;48.692;9.020;2023-02-03T06:51:53;1.07;;;0.83;;
4057;SDS011;2044;48.692;9.020;2023-02-03T06:54:20;0.77;;;0.77;;
4057;SDS011;2044;48.692;9.020;2023-02-03T06:56:48;1.27;;;1.10;;
4057;SDS011;2044;48.692;9.020;2023-02-03T06:59:15;1.27;;;0.90;;
4057;SDS011;2044;48.692;9.020;2023-02-03T07:01:42;0.80;;;0.73;;
4057;SDS011;2044;48.692;9.020;2023-02-03T07:04:08;0.93;;;0.87;;
4057;SDS011;2044;48.692;9.020;2023-02-03T07:06:35;1.03;;;0.93;;
4057;SDS011;2044;48.692;9.020;2023-02-03T07:09:03;0.70;;;0.70;;
4057;SDS011;2044;48.692;9.020;2023-02-03T07:11:30;0.80;;;0.80;;
4057;SDS011;2044;48.692;9.020;2023-02-03T07:13:59;1.30;;;1.17;;
4057;SDS011;2044;48.692;9.020;2023-02-03T07:16:26;2.60;;;1.03;;
4057;SDS011;2044;48.692;9.020;2023-02-03T07:18:53;1.53;;;1.00;;
4057;SDS011;2044;48.692;9.020;2023-02-03T07:21:19;1.07;;;0.90;;
4057;SDS011;2044;48.692;9.020;2023-02-03T07:23:46;2.20;;;1.40;;
4057;SDS011;2044;48.692;9.020;2023-02-03T07:26:13;1.00;;;0.90;;
4057;SDS011;2044;48.692;9.020;2023-02-03T07:28:41;2.80;;;0.93;;
4057;SDS011;2044;48.692;9.020;2023-02-03T07:31:09;1.73;;;1.40;;
4057;SDS011;2044;48.692;9.020;2023-02-03T07:33:35;1.50;;;1.40;;
4057;SDS011;2044;48.692;9.020;2023-02-03T07:36:03;2.97;;;1.67;;
4057;SDS011;2044;48.692;9.020;2023-02-03T07:38:30;1.10;;;1.00;;
4057;SDS011;2044;48.692;9.020;2023-02-03T07:40:57;1.60;;;1.50;;
4057;SDS011;2044;48.692;9.020;2023-02-03T07:43:23;3.30;;;1.43;;
4057;SDS011;2044;48.692;9.020;2023-02-03T07:45:50;2.00;;;1.90;;
4057;SDS011;2044;48.692;9.020;2023-02-03T07:48:18;3.00;;;1.90;;
4057;SDS011;2044;48.692;9.020;2023-02-03T07:50:46;2.07;;;1.40;;
4057;SDS011;2044;48.692;9.020;2023-02-03T07:53:14;3.03;;;2.17;;
4057;SDS011;2044;48.692;9.020;2023-02-03T07:55:42;1.43;;;1.33;;
4057;SDS011;2044;48.692;9.020;2023-02-03T07:58:09;2.67;;;2.47;;
4057;SDS011;2044;48.692;9.020;2023-02-03T08:00:36;2.40;;;2.03;;
4057;SDS011;2044;48.692;9.020;2023-02-03T08:03:03;1.43;;;1.33;;
4057;SDS011;2044;48.692;9.020;2023-02-03T08:08:00;1.43;;;1.33;;
4057;SDS011;2044;48.692;9.020;2023-02-03T08:10:27;1.63;;;1.40;;
4057;SDS011;2044;48.692;9.020;2023-02-03T08:12:54;5.17;;;1.87;;
4057;SDS011;2044;48.692;9.020;2023-02-03T08:15:21;2.23;;;1.07;;
4057;SDS011;2044;48.692;9.020;2023-02-03T08:17:48;4.03;;;2.17;;
4057;SDS011;2044;48.692;9.020;2023-02-03T08:20:15;2.37;;;2.07;;
4057;SDS011;2044;48.692;9.020;2023-02-03T08:22:44;1.60;;;1.50;;
4057;SDS011;2044;48.692;9.020;2023-02-03T08:25:11;1.53;;;1.43;;
4057;SDS011;2044;48.692;9.020;2023-02-03T08:27:38;2.50;;;2.23;;
4057;SDS011;2044;48.692;9.020;2023-02-03T08:30:06;2.53;;;2.33;;
4057;SDS011;2044;48.692;9.020;2023-02-03T08:32:36;4.20;;;1.30;;
4057;SDS011;2044;48.692;9.020;2023-02-03T08:35:06;3.93;;;1.67;;
4057;SDS011;2044;48.692;9.020;2023-02-03T08:37:33;3.13;;;2.37;;
4057;SDS011;2044;48.692;9.020;2023-02-03T08:40:02;2.00;;;1.77;;
4057;SDS011;2044;48.692;9.020;2023-02-03T08:42:29;2.73;;;2.30;;
4057;SDS011;2044;48.692;9.020;2023-02-03T08:44:56;3.63;;;2.83;;
4057;SDS011;2044;48.692;9.020;2023-02-03T08:47:23;4.43;;;2.40;;
4057;SDS011;2044;48.692;9.020;2023-02-03T08:49:51;3.10;;;2.10;;
4057;SDS011;2044;48.692;9.020;2023-02-03T08:52:18;2.70;;;2.50;;
4057;SDS011;2044;48.692;9.020;2023-02-03T08:54:45;5.90;;;2.47;;
4057;SDS011;2044;48.692;9.020;2023-02-03T08:57:13;3.50;;;1.97;;
4057;SDS011;2044;48.692;9.020;2023-02-03T08:59:42;5.33;;;2.50;;
4057;SDS011;2044;48.692;9.020;2023-02-03T09:02:10;4.03;;;3.10;;
4057;SDS011;2044;48.692;9.020;2023-02-03T09:04:41;2.33;;;2.00;;
4057;SDS011;2044;48.692;9.020;2023-02-03T09:07:08;2.40;;;1.70;;
4057;SDS011;2044;48.692;9.020;2023-02-03T09:09:35;4.00;;;2.27;;
4057;SDS011;2044;48.692;9.020;2023-02-03T09:12:02;2.10;;;1.40;;
4057;SDS011;2044;48.692;9.020;2023-02-03T09:14:31;3.27;;;2.50;;
4057;SDS011;2044;48.692;9.020;2023-02-03T09:16:59;3.80;;;2.00;;
4057;SDS011;2044;48.692;9.020;2023-02-03T09:19:27;3.10;;;2.07;;
4057;SDS011;2044;48.692;9.020;2023-02-03T09:21:54;3.20;;;1.50;;
4057;SDS011;2044;48.692;9.020;2023-02-03T09:24:21;2.10;;;1.73;;
4057;SDS011;2044;48.692;9.020;2023-02-03T09:26:48;3.43;;;1.70;;
4057;SDS011;2044;48.692;9.020;2023-02-03T09:29:15;2.30;;;2.10;;
4057;SDS011;2044;48.692;9.020;2023-02-03T09:31:43;2.97;;;1.97;;
4057;SDS011;2044;48.692;9.020;2023-02-03T09:34:12;3.23;;;1.90;;
4057;SDS011;2044;48.692;9.020;2023-02-03T09:36:39;2.43;;;2.03;;
4057;SDS011;2044;48.692;9.020;2023-02-03T09:39:05;2.50;;;1.60;;
4057;SDS011;2044;48.692;9.020;2023-02-03T09:41:38;3.20;;;2.37;;
4057;SDS011;2044;48.692;9.020;2023-02-03T09:44:16;1.83;;;1.50;;
4057;SDS011;2044;48.692;9.020;2023-02-03T09:46:49;1.77;;;1.50;;
4057;SDS011;2044;48.692;9.020;2023-02-03T09:49:21;2.17;;;1.43;;
4057;SDS011;2044;48.692;9.020;2023-02-03T09:51:52;2.00;;;1.77;;
4057;SDS011;2044;48.692;9.020;2023-02-03T09:54:25;3.30;;;1.43;;
4057;SDS011;2044;48.692;9.020;2023-02-03T09:57:03;1.83;;;1.10;;
4057;SDS011;2044;48.692;9.020;2023-02-03T09:59:31;1.40;;;1.30;;
4057;SDS011;2044;48.692;9.020;2023-02-03T10:02:03;1.93;;;1.27;;
4057;SDS011;2044;48.692;9.020;2023-02-03T10:04:43;2.00;;;1.63;;
4057;SDS011;2044;48.692;9.020;2023-02-03T10:07:19;2.60;;;1.40;;
4057;SDS011;2044;48.692;9.020;2023-02-03T10:09:55;2.20;;;1.50;;
4057;SDS011;2044;48.692;9.020;2023-02-03T10:12:35;3.00;;;1.47;;
4057;SDS011;2044;48.692;9.020;2023-02-03T10:15:17;1.50;;;1.30;;
4057;SDS011;2044;48.692;9.020;2023-02-03T10:18:00;2.10;;;1.60;;
4057;SDS011;2044;48.692;9.020;2023-02-03T10:20:33;1.77;;;0.90;;
4057;SDS011;2044;48.692;9.020;2023-02-03T10:23:05;5.67;;;2.90;;
4057;SDS011;2044;48.692;9.020;2023-02-03T10:25:38;1.10;;;1.00;;
4057;SDS011;2044;48.692;9.020;2023-02-03T10:28:08;1.33;;;1.10;;
4057;SDS011;2044;48.692;9.020;2023-02-03T10:30:42;1.43;;;1.27;;
4057;SDS011;2044;48.692;9.020;2023-02-03T10:33:14;1.40;;;1.27;;
4057;SDS011;2044;48.692;9.020;2023-02-03T10:35:44;3.63;;;2.03;;
4057;SDS011;2044;48.692;9.020;2023-02-03T10:38:18;2.37;;;1.50;;
4057;SDS011;2044;48.692;9.020;2023-02-03T10:41:03;1.63;;;1.40;;
4057;SDS011;2044;48.692;9.020;2023-02-03T10:43:30;3.10;;;1.30;;
4057;SDS011;2044;48.692;9.020;2023-02-03T10:46:15;2.77;;;1.33;;
4057;SDS011;2044;48.692;9.020;2023-02-03T10:48:44;1.67;;;1.10;;
4057;SDS011;2044;48.692;9.020;2023-02-03T10:51:14;1.30;;;1.20;;
4057;SDS011;2044;48.692;9.020;2023-02-03T10:53:44;1.30;;;1.20;;
4057;SDS011;2044;48.692;9.020;2023-02-03T10:56:12;1.03;;;0.97;;
4057;SDS011;2044;48.692;9.020;2023-02-03T10:58:45;1.40;;;0.80;;
4057;SDS011;2044;48.692;9.020;2023-02-03T11:01:13;1.37;;;0.80;;
4057;SDS011;2044;48.692;9.020;2023-02-03T11:03:42;1.43;;;0.73;;
4057;SDS011;2044;48.692;9.020;2023-02-03T11:06:19;4.00;;;0.90;;
4057;SDS011;2044;48.692;9.020;2023-02-03T11:08:47;2.20;;;0.90;;
4057;SDS011;2044;48.692;9.020;2023-02-03T11:11:18;0.80;;;0.70;;
4057;SDS011;2044;48.692;9.020;2023-02-03T11:13:51;0.90;;;0.87;;
4057;SDS011;2044;48.692;9.020;2023-02-03T11:16:18;0.70;;;0.70;;
4057;SDS011;2044;48.692;9.020;2023-02-03T11:18:46;0.70;;;0.70;;
4057;SDS011;2044;48.692;9.020;2023-02-03T11:21:20;0.80;;;0.70;;
4057;SDS011;2044;48.692;9.020;2023-02-03T11:23:49;0.73;;;0.73;;
4057;SDS011;2044;48.692;9.020;2023-02-03T11:26:23;1.33;;;0.80;;
4057;SDS011;2044;48.692;9.020;2023-02-03T11:28:53;0.90;;;0.70;;
4057;SDS011;2044;48.692;9.020;2023-02-03T11:31:23;0.77;;;0.77;;
4057;SDS011;2044;48.692;9.020;2023-02-03T11:33:53;0.80;;;0.70;;
4057;SDS011;2044;48.692;9.020;2023-02-03T11:36:28;0.80;;;0.60;;
4057;SDS011;2044;48.692;9.020;2023-02-03T11:41:47;0.60;;;0.50;;
4057;SDS011;2044;48.692;9.020;2023-02-03T11:44:18;0.70;;;0.60;;
4057;SDS011;2044;48.692;9.020;2023-02-03T11:46:47;2.80;;;1.10;;
4057;SDS011;2044;48.692;9.020;2023-02-03T11:49:32;3.43;;;1.47;;
4057;SDS011;2044;48.692;9.020;2023-02-03T11:52:27;1.17;;;0.60;;
4057;SDS011;2044;48.692;9.020;2023-02-03T11:55:05;1.00;;;0.90;;
4057;SDS011;2044;48.692;9.020;2023-02-03T11:57:39;1.50;;;0.70;;
4057;SDS011;2044;48.692;9.020;2023-02-03T12:00:17;0.87;;;0.67;;
4057;SDS011;2044;48.692;9.020;2023-02-03T12:06:08;1.10;;;0.80;;
4057;SDS011;2044;48.692;9.020;2023-02-03T12:09:01;2.40;;;1.23;;
4057;SDS011;2044;48.692;9.020;2023-02-03T12:11:42;0.87;;;0.70;;
4057;SDS011;2044;48.692;9.020;2023-02-03T12:14:26;1.53;;;1.00;;
4057;SDS011;2044;48.692;9.020;2023-02-03T12:17:07;1.00;;;0.90;;
4057;SDS011;2044;48.692;9.020;2023-02-03T12:19:51;1.17;;;0.90;;
4057;SDS011;2044;48.692;9.020;2023-02-03T12:22:29;0.60;;;0.60;;
4057;SDS011;2044;48.692;9.020;2023-02-03T12:25:14;0.60;;;0.60;;
4057;SDS011;2044;48.692;9.020;2023-02-03T12:27:52;1.37;;;0.73;;
4057;SDS011;2044;48.692;9.020;2023-02-03T12:30:26;0.80;;;0.70;;
4057;SDS011;2044;48.692;9.020;2023-02-03T12:32:58;0.70;;;0.70;;
4057;SDS011;2044;48.692;9.020;2023-02-03T12:35:29;0.70;;;0.67;;
4057;SDS011;2044;48.692;9.020;2023-02-03T12:38:00;0.70;;;0.60;;
4057;SDS011;2044;48.692;9.020;2023-02-03T12:40:38;0.70;;;0.70;;
4057;SDS011;2044;48.692;9.020;2023-02-03T12:43:14;0.70;;;0.70;;
4057;SDS011;2044;48.692;9.020;2023-02-03T12:45:48;1.63;;;0.80;;
4057;SDS011;2044;48.692;9.020;2023-02-03T12:48:20;1.10;;;0.80;;
4057;SDS011;2044;48.692;9.020;2023-02-03T12:50:52;2.13;;;0.90;;
4057;SDS011;2044;48.692;9.020;2023-02-03T12:53:21;1.37;;;0.77;;
4057;SDS011;2044;48.692;9.020;2023-02-03T12:55:55;1.00;;;0.70;;
4057;SDS011;2044;48.692;9.020;2023-02-03T12:58:27;0.63;;;0.60;;
4057;SDS011;2044;48.692;9.020;2023-02-03T13:00:57;1.67;;;0.57;;
4057;SDS011;2044;48.692;9.020;2023-02-03T13:03:29;0.90;;;0.77;;
4057;SDS011;2044;48.692;9.020;2023-02-03T13:06:03;0.70;;;0.70;;
4057;SDS011;2044;48.692;9.020;2023-02-03T13:08:35;0.63;;;0.63;;
4057;SDS011;2044;48.692;9.020;2023-02-03T13:11:12;0.80;;;0.80;;
4057;SDS011;2044;48.692;9.020;2023-02-03T13:13:46;0.67;;;0.60;;
4057;SDS011;2044;48.692;9.020;2023-02-03T13:16:17;0.90;;;0.80;;
4057;SDS011;2044;48.692;9.020;2023-02-03T13:18:51;0.80;;;0.70;;
4057;SDS011;2044;48.692;9.020;2023-02-03T13:21:21;0.90;;;0.70;;
4057;SDS011;2044;48.692;9.020;2023-02-03T13:23:48;36.57;;;21.40;;
4057;SDS011;2044;48.692;9.020;2023-02-03T13:26:22;28.70;;;20.57;;
4057;SDS011;2044;48.692;9.020;2023-02-03T13:29:08;119.43;;;76.23;;
4057;SDS011;2044;48.692;9.020;2023-02-03T13:32:10;60.17;;;36.27;;
4057;SDS011;2044;48.692;9.020;2023-02-03T13:34:50;142.33;;;68.30;;
4057;SDS011;2044;48.692;9.020;2023-02-03T13:37:41;134.10;;;64.33;;
4057;SDS011;2044;48.692;9.020;2023-02-03T13:40:27;10.27;;;7.23;;
4057;SDS011;2044;48.692;9.020;2023-02-03T13:43:04;6.07;;;3.87;;
4057;SDS011;2044;48.692;9.020;2023-02-03T13:45:37;6.47;;;4.67;;
4057;SDS011;2044;48.692;9.020;2023-02-03T13:48:08;3.87;;;3.30;;
4057;SDS011;2044;48.692;9.020;2023-02-03T13:50:39;3.70;;;3.40;;
4057;SDS011;2044;48.692;9.020;2023-02-03T13:53:07;8.40;;;6.03;;
4057;SDS011;2044;48.692;9.020;2023-02-03T13:55:42;5.97;;;3.83;;
4057;SDS011;2044;48.692;9.020;2023-02-03T13:58:21;2.50;;;1.60;;
4057;SDS011;2044;48.692;9.020;2023-02-03T14:00:58;11.23;;;10.00;;
4057;SDS011;2044;48.692;9.020;2023-02-03T14:03:40;12.03;;;10.83;;
4057;SDS011;2044;48.692;9.020;2023-02-03T14:09:35;10.77;;;8.33;;
4057;SDS011;2044;48.692;9.020;2023-02-03T14:15:28;3.43;;;2.63;;
4057;SDS011;2044;48.692;9.020;2023-02-03T14:21:09;1.20;;;1.10;;
4057;SDS011;2044;48.692;9.020;2023-02-03T14:23:47;3.17;;;2.43;;
4057;SDS011;2044;48.692;9.020;2023-02-03T14:26:24;2.53;;;2.33;;
4057;SDS011;2044;48.692;9.020;2023-02-03T14:28:59;2.50;;;2.30;;
4057;SDS011;2044;48.692;9.020;2023-02-03T14:31:29;10.70;;;9.80;;
4057;SDS011;2044;48.692;9.020;2023-02-03T14:34:05;5.20;;;4.50;;
4057;SDS011;2044;48.692;9.020;2023-02-03T14:36:38;4.77;;;4.30;;
4057;SDS011;2044;48.692;9.020;2023-02-03T14:42:31;2.03;;;1.93;;
4057;SDS011;2044;48.692;9.020;2023-02-03T14:45:20;3.17;;;1.93;;
4057;SDS011;2044;48.692;9.020;2023-02-03T14:48:03;1.27;;;1.00;;
4057;SDS011;2044;48.692;9.020;2023-02-03T14:50:49;0.90;;;0.90;;
4057;SDS011;2044;48.692;9.020;2023-02-03T14:53:38;2.40;;;1.93;;
4057;SDS011;2044;48.692;9.020;2023-02-03T14:56:25;3.10;;;2.50;;
4057;SDS011;2044;48.692;9.020;2023-02-03T14:59:25;1.80;;;1.53;;
4057;SDS011;2044;48.692;9.020;2023-02-03T15:02:12;10.93;;;2.20;;
4057;SDS011;2044;48.692;9.020;2023-02-03T15:04:46;3.00;;;2.70;;
4057;SDS011;2044;48.692;9.020;2023-02-03T15:07:33;15.53;;;10.63;;
4057;SDS011;2044;48.692;9.020;2023-02-03T15:10:12;23.17;;;20.67;;
4057;SDS011;2044;48.692;9.020;2023-02-03T15:12:46;6.47;;;5.80;;
4057;SDS011;2044;48.692;9.020;2023-02-03T15:15:17;21.10;;;13.43;;
4057;SDS011;2044;48.692;9.020;2023-02-03T15:17:46;12.90;;;9.03;;
4057;SDS011;2044;48.692;9.020;2023-02-03T15:20:30;3.53;;;3.10;;
4057;SDS011;2044;48.692;9.020;2023-02-03T15:22:59;9.87;;;8.87;;
4057;SDS011;2044;48.692;9.020;2023-02-03T15:25:27;5.90;;;5.30;;
4057;SDS011;2044;48.692;9.020;2023-02-03T15:28:08;33.00;;;20.60;;
4057;SDS011;2044;48.692;9.020;2023-02-03T15:30:35;28.70;;;20.70;;
4057;SDS011;2044;48.692;9.020;2023-02-03T15:33:05;26.63;;;17.00;;
4057;SDS011;2044;48.692;9.020;2023-02-03T15:35:35;13.00;;;8.47;;
4057;SDS011;2044;48.692;9.020;2023-02-03T15:38:12;90.63;;;67.57;;
4057;SDS011;2044;48.692;9.020;2023-02-03T15:40:41;59.97;;;44.27;;
4057;SDS011;2044;48.692;9.020;2023-02-03T15:43:11;33.57;;;29.13;;
4057;SDS011;2044;48.692;9.020;2023-02-03T15:45:42;121.60;;;76.73;;
4057;SDS011;2044;48.692;9.020;2023-02-03T15:48:19;41.60;;;30.00;;
4057;SDS011;2044;48.692;9.020;2023-02-03T15:50:56;28.27;;;22.10;;
4057;SDS011;2044;48.692;9.020;2023-02-03T15:53:28;30.07;;;23.77;;
4057;SDS011;2044;48.692;9.020;2023-02-03T15:55:58;11.80;;;8.57;;
4057;SDS011;2044;48.692;9.020;2023-02-03T15:58:29;3.80;;;2.90;;
4057;SDS011;2044;48.692;9.020;2023-02-03T16:01:12;11.23;;;10.10;;
4057;SDS011;2044;48.692;9.020;2023-02-03T16:03:41;6.43;;;5.93;;